Flight Track Log - Related Links

Times and Time Zones

All times are in EDT time to prevent confusion due to time zone crossing. See the DAL1979 flight status page for this flight to view local times or setup timezone preferences in your user account.

Time Position Orientation Groundspeed Altitude Reporting Facility
EDT Latitude Longitude Course Direction KTS MPH feet Rate Location/Type
Wed 11:36:22 AM 44.8890 -93.2380 298° West 180 207 1,200  Level FlightAware ADS-B
Wed 11:36:52 AM 44.9000 -93.2720 295° West 191 220 2,500 2,133 Climbing FlightAware ADS-B
Wed 11:37:07 AM 44.8980 -93.2890 261° West 202 232 2,800 1,200 Climbing FlightAware ADS-B
Wed 11:37:17 AM 44.8930 -93.3000 237° Southwest 210 242 3,000 1,200 Climbing FlightAware ADS-B
Wed 11:37:32 AM 44.8790 -93.3110 209° Southwest 226 260 3,300 1,733 Climbing FlightAware ADS-B
Wed 11:38:02 AM 44.8480 -93.3290 202° Southwest 253 291 4,300 2,291 Climbing FlightAware ADS-B
Wed 11:38:27 AM 44.8200 -93.3440 201° Southwest 260 299 5,400 2,743 Climbing FlightAware ADS-B
Wed 11:38:37 AM 44.8080 -93.3470 190° South 263 303 5,900 2,800 Climbing FlightAware ADS-B
Wed 11:38:57 AM 44.7850 -93.3380 164° South 264 304 6,800 2,800 Climbing FlightAware ADS-B
Wed 11:39:07 AM 44.7750 -93.3260 140° Southeast 267 307 7,300 3,000 Climbing FlightAware ADS-B
Wed 11:39:37 AM 44.7530 -93.2830 126° Southeast 271 312 8,800 2,560 Climbing FlightAware ADS-B
Wed 11:40:22 AM 44.7220 -93.2180 124° Southeast 288 331 10,500 1,624 Climbing FlightAware ADS-B
Wed 11:41:02 AM 44.6900 -93.1510 124° Southeast 335 386 11,100 1,275 Climbing FlightAware ADS-B
Wed 11:41:42 AM 44.6520 -93.0750 125° Southeast 361 415 12,200 1,976 Climbing FlightAware ADS-B
Wed 11:42:27 AM 44.6080 -92.9850 124° Southeast 371 427 13,900 2,259 Climbing FlightAware ADS-B
Wed 11:43:07 AM 44.5690 -92.9050 124° Southeast 381 438 15,400 2,118 Climbing FlightAware ADS-B
Wed 11:43:52 AM 44.5240 -92.8140 125° Southeast 392 451 16,900 1,835 Climbing FlightAware ADS-B
Wed 11:44:32 AM 44.4820 -92.7290 125° Southeast 404 465 18,000 1,575 Climbing FlightAware ADS-B
Wed 11:45:12 AM 44.4390 -92.6430 125° Southeast 414 476 19,000 1,553 Climbing FlightAware ADS-B
Wed 11:45:57 AM 44.3870 -92.5390 125° Southeast 423 487 20,200 1,553 Climbing FlightAware ADS-B
Wed 11:46:37 AM 44.3430 -92.4490 124° Southeast 429 494 21,200 1,553 Climbing FlightAware ADS-B
Wed 11:47:22 AM 44.2970 -92.3440 121° Southeast 437 503 22,400 1,553 Climbing FlightAware ADS-B
Wed 11:48:02 AM 44.2550 -92.2460 121° Southeast 444 511 23,400 1,500 Climbing FlightAware ADS-B
Wed 11:48:42 AM 44.2110 -92.1450 121° Southeast 449 517 24,400 1,341 Climbing FlightAware ADS-B
Wed 11:49:27 AM 44.1620 -92.0330 121° Southeast 457 526 25,300 1,271 Climbing FlightAware ADS-B
Wed 11:50:07 AM 44.1170 -91.9300 121° Southeast 463 533 26,200 1,275 Climbing FlightAware ADS-B
Wed 11:50:47 AM 44.0720 -91.8270 121° Southeast 468 539 27,000 1,059 Climbing FlightAware ADS-B
Wed 11:51:32 AM 44.0230 -91.7160 122° Southeast 474 545 27,700 960 Climbing FlightAware ADS-B
Wed 11:52:02 AM 43.9890 -91.6370 121° Southeast 480 552 28,200 943 Climbing FlightAware ADS-B
Wed 11:52:42 AM 43.9410 -91.5300 122° Southeast 486 559 28,800 1,200 Climbing FlightAware ADS-B
Wed 11:53:22 AM 43.8880 -91.4330 127° Southeast 478 550 29,800 1,412 Climbing FlightAware ADS-B
Wed 11:54:07 AM 43.8170 -91.3310 134° Southeast 475 547 30,800 1,271 Climbing FlightAware ADS-B
Wed 11:54:47 AM 43.7550 -91.2450 135° Southeast 473 544 31,600 1,200 Climbing FlightAware ADS-B
Wed 11:55:32 AM 43.6880 -91.1520 135° Southeast 470 541 32,500 988 Climbing FlightAware ADS-B
Wed 11:56:12 AM 43.6250 -91.0650 135° Southeast 471 542 33,000 375 Climbing FlightAware ADS-B
Wed 11:56:52 AM 43.5650 -90.9810 135° Southeast 471 542 33,000  Level FlightAware ADS-B
Wed 11:57:37 AM 43.4940 -90.8830 135° Southeast 473 544 33,000  Level FlightAware ADS-B
Wed 11:58:17 AM 43.4330 -90.7980 135° Southeast 473 544 33,000  Level FlightAware ADS-B
Wed 11:58:57 AM 43.3730 -90.7160 135° Southeast 475 547 33,000 -71 Level FlightAware ADS-B
Wed 11:59:42 AM 43.3020 -90.6180 135° Southeast 475 547 32,900  Descending FlightAware ADS-B
Wed 12:00:22 PM 43.2410 -90.5360 136° Southeast 475 547 33,000 71 Climbing FlightAware ADS-B
Wed 12:01:07 PM 43.1690 -90.4370 135° Southeast 475 547 33,000  Level FlightAware ADS-B
Wed 12:01:47 PM 43.1050 -90.3500 135° Southeast 474 545 33,000 -71 Level FlightAware ADS-B
Wed 12:02:32 PM 43.0370 -90.2590 136° Southeast 474 545 32,900  Descending FlightAware ADS-B
Wed 12:03:12 PM 42.9750 -90.1750 135° Southeast 475 547 33,000 75 Climbing FlightAware ADS-B
Wed 12:03:52 PM 42.9150 -90.0930 135° Southeast 475 547 33,000  Level FlightAware ADS-B
Wed 12:04:37 PM 42.8390 -89.9920 136° Southeast 475 547 33,000 -71 Level FlightAware ADS-B
Wed 12:05:17 PM 42.7670 -89.9350 150° Southeast 469 540 32,900  Descending FlightAware ADS-B
Wed 12:06:02 PM 42.6710 -89.9100 169° South 465 535 33,000 75 Climbing FlightAware ADS-B
Wed 12:06:37 PM 42.6040 -89.8960 171° South 466 536 33,000  Level FlightAware ADS-B
Wed 12:07:27 PM 42.4970 -89.8730 171° South 465 535 33,000 -67 Level FlightAware ADS-B
Wed 12:08:07 PM 42.4040 -89.8520 171° South 466 536 32,900  Descending FlightAware ADS-B
Wed 12:08:47 PM 42.3230 -89.8340 171° South 468 539 33,000  Climbing FlightAware ADS-B
Wed 12:09:32 PM 42.2250 -89.8130 171° South 470 541 32,900  Descending FlightAware ADS-B
Wed 12:10:12 PM 42.1380 -89.7940 171° South 470 541 33,000 75 Climbing FlightAware ADS-B
Wed 12:10:52 PM 42.0530 -89.7750 171° South 471 542 33,000  Level FlightAware ADS-B
Wed 12:11:37 PM 41.9540 -89.7520 170° South 473 544 33,000  Level FlightAware ADS-B
Wed 12:12:17 PM 41.8700 -89.7210 165° South 474 545 33,000 -75 Level FlightAware ADS-B
Wed 12:12:57 PM 41.7840 -89.6910 165° South 474 545 32,900  Descending FlightAware ADS-B
Wed 12:13:42 PM 41.6860 -89.6570 165° South 473 544 33,000 71 Climbing FlightAware ADS-B
Wed 12:14:22 PM 41.6020 -89.6290 166° South 474 545 33,000 -71 Level FlightAware ADS-B
Wed 12:15:07 PM 41.5070 -89.5980 166° South 475 547 32,900  Descending FlightAware ADS-B
Wed 12:15:47 PM 41.4260 -89.5720 166° South 477 549 33,000 75 Climbing FlightAware ADS-B
Wed 12:16:27 PM 41.3340 -89.5410 166° South 479 551 33,000 -71 Level FlightAware ADS-B
Wed 12:17:12 PM 41.2420 -89.5110 166° South 479 551 32,900 -565 Descending FlightAware ADS-B
Wed 12:17:52 PM 41.1530 -89.4820 166° South 481 554 32,200 -1,200 Descending FlightAware ADS-B
Wed 12:18:37 PM 41.0590 -89.4500 166° South 487 560 31,200 -918 Descending FlightAware ADS-B
Wed 12:19:17 PM 40.9670 -89.4190 166° South 484 557 30,900 -160 Descending FlightAware ADS-B
Wed 12:19:52 PM 40.8920 -89.3930 165° South 485 558 31,000 71 Climbing FlightAware ADS-B
Wed 12:20:42 PM 40.7830 -89.3570 166° South 487 560 31,000  Level FlightAware ADS-B
Wed 12:21:22 PM 40.6940 -89.3270 166° South 488 562 31,000  Level FlightAware ADS-B
Wed 12:22:07 PM 40.5930 -89.2930 166° South 490 564 31,000  Level FlightAware ADS-B
Wed 12:22:47 PM 40.5050 -89.2640 166° South 492 566 31,000  Level FlightAware ADS-B
Wed 12:23:32 PM 40.4090 -89.2320 166° South 493 567 31,000  Level FlightAware ADS-B
Wed 12:24:12 PM 40.3260 -89.2050 166° South 495 570 31,000  Level FlightAware ADS-B
Wed 12:24:52 PM 40.2320 -89.1740 166° South 494 568 31,000  Level FlightAware ADS-B
Wed 12:25:37 PM 40.1360 -89.1430 166° South 494 568 31,000  Level FlightAware ADS-B
Wed 12:26:17 PM 40.0450 -89.1130 166° South 494 568 31,000  Level FlightAware ADS-B
Wed 12:26:57 PM 39.9550 -89.0840 166° South 494 568 31,000  Level FlightAware ADS-B
Wed 12:27:42 PM 39.8570 -89.0520 166° South 493 567 31,000  Level FlightAware ADS-B
Wed 12:28:27 PM 39.7600 -89.0210 166° South 493 567 31,000  Level FlightAware ADS-B
Wed 12:29:07 PM 39.6610 -88.9890 166° South 494 568 31,000  Level FlightAware ADS-B
Wed 12:29:47 PM 39.5790 -88.9630 166° South 494 568 31,000  Level FlightAware ADS-B
Wed 12:30:22 PM 39.4980 -88.9360 166° South 495 570 31,000  Level FlightAware ADS-B
Wed 12:31:07 PM 39.3960 -88.9040 166° South 494 568 31,000  Level FlightAware ADS-B
Wed 12:31:52 PM 39.3030 -88.8740 166° South 492 566 31,000  Level FlightAware ADS-B
Wed 12:32:37 PM 39.1980 -88.8410 166° South 491 565 31,000  Level FlightAware ADS-B
Wed 12:33:17 PM 39.1070 -88.8120 166° South 491 565 31,000  Level FlightAware ADS-B
Wed 12:33:52 PM 39.0340 -88.7890 166° South 491 565 31,000  Level FlightAware ADS-B
Wed 12:34:57 PM 38.8930 -88.7450 166° South 488 562 31,000  Level FlightAware ADS-B
Wed 12:35:37 PM 38.7990 -88.7150 166° South 487 560 31,000  Level FlightAware ADS-B
Wed 12:36:17 PM 38.7110 -88.6870 166° South 487 560 31,000  Level FlightAware ADS-B
Wed 12:37:02 PM 38.6150 -88.6570 166° South 487 560 31,000  Level FlightAware ADS-B
Wed 12:37:42 PM 38.5260 -88.6300 167° South 486 559 31,000  Level FlightAware ADS-B
Wed 12:38:22 PM 38.4370 -88.6020 166° South 486 559 31,000  Level FlightAware ADS-B
Wed 12:39:07 PM 38.3380 -88.5710 166° South 487 560 31,000  Level FlightAware ADS-B
Wed 12:39:47 PM 38.2500 -88.5440 166° South 487 560 31,000  Level FlightAware ADS-B
Wed 12:40:32 PM 38.1550 -88.5150 167° South 488 562 31,000  Level FlightAware ADS-B
Wed 12:41:12 PM 38.0650 -88.4870 166° South 489 563 31,000  Level FlightAware ADS-B
Wed 12:41:57 PM 37.9650 -88.4560 166° South 489 563 31,000  Level FlightAware ADS-B
Wed 12:42:37 PM 37.8790 -88.4300 167° South 490 564 31,000  Level FlightAware ADS-B
Wed 12:43:17 PM 37.7890 -88.4020 166° South 490 564 31,000  Level FlightAware ADS-B
Wed 12:43:57 PM 37.7000 -88.3750 167° South 491 565 31,000  Level FlightAware ADS-B
Wed 12:44:42 PM 37.6000 -88.3450 167° South 492 566 31,000  Level FlightAware ADS-B
Wed 12:45:22 PM 37.5100 -88.3180 167° South 493 567 31,000  Level FlightAware ADS-B
Wed 12:46:07 PM 37.4130 -88.2880 166° South 493 567 31,000  Level FlightAware ADS-B
Wed 12:46:47 PM 37.3250 -88.2560 164° South 494 568 31,000  Level FlightAware ADS-B
Wed 12:47:32 PM 37.2500 -88.1810 141° Southeast 495 570 31,000  Level FlightAware ADS-B
Wed 12:48:12 PM 37.1870 -88.0950 133° Southeast 494 568 31,000  Level FlightAware ADS-B
Wed 12:48:52 PM 37.1230 -88.0060 132° Southeast 494 568 31,000  Level FlightAware ADS-B
Wed 12:49:37 PM 37.0540 -87.9110 132° Southeast 495 570 31,000  Level FlightAware ADS-B
Wed 12:50:32 PM 36.9690 -87.8010 134° Southeast 495 570 31,000  Level FlightAware ADS-B
Wed 12:51:27 PM 36.8730 -87.6980 139° Southeast 495 570 31,000  Level FlightAware ADS-B
Wed 12:52:07 PM 36.8070 -87.6270 139° Southeast 496 571 31,000  Level FlightAware ADS-B
Wed 12:52:47 PM 36.7490 -87.5640 139° Southeast 496 571 31,000  Level FlightAware ADS-B
Wed 12:53:27 PM 36.6900 -87.5000 139° Southeast 496 571 31,000  Level FlightAware ADS-B
Wed 12:54:17 PM 36.6160 -87.4200 139° Southeast 496 571 31,000  Level FlightAware ADS-B
Wed 12:54:57 PM 36.5570 -87.3560 139° Southeast 496 571 31,000  Level FlightAware ADS-B
Wed 12:55:37 PM 36.4980 -87.2930 139° Southeast 496 571 31,000  Level FlightAware ADS-B
Wed 12:56:17 PM 36.4390 -87.2290 139° Southeast 496 571 31,000  Level FlightAware ADS-B
Wed 12:57:07 PM 36.3660 -87.1490 139° Southeast 496 571 31,000  Level FlightAware ADS-B
Wed 12:57:47 PM 36.3070 -87.0860 139° Southeast 496 571 31,000  Level FlightAware ADS-B
Wed 12:58:27 PM 36.2480 -87.0220 139° Southeast 496 571 31,000  Level FlightAware ADS-B
Wed 12:59:07 PM 36.1890 -86.9590 139° Southeast 496 571 31,000  Level FlightAware ADS-B
Wed 12:59:47 PM 36.1300 -86.8960 139° Southeast 496 571 31,000 1,781 Level FlightAware ADS-B
Wed 01:00:11 PM 35.9534 -86.7375 144° Southeast 478 550 32,900 1,966 Climbing FlightAware ADS-B
Wed 01:00:45 PM 35.8947 -86.6769 140° Southeast 478 550 32,900  Level FlightAware ADS-B
Wed 01:03:18 PM 35.6317 -86.4071 140° Southeast 486 559 32,900  Level FlightAware ADS-B
Wed 01:04:04 PM 35.5529 -86.3267 140° Southeast 486 559 32,900  Level FlightAware ADS-B
Wed 01:04:41 PM 35.4884 -86.2610 140° Southeast 486 559 32,900 90 Level FlightAware ADS-B
Wed 01:05:11 PM 35.4364 -86.2080 140° Southeast 484 557 33,000 197 Climbing FlightAware ADS-B
Wed 01:05:42 PM 35.3835 -86.1543 140° Southeast 484 557 33,100 903 Climbing FlightAware ADS-B
Wed 01:06:44 PM 35.2770 -86.0464 140° Southeast 478 550 34,400 1,161 Climbing FlightAware ADS-B
Wed 01:07:15 PM 35.2252 -85.9940 140° Southeast 477 549 34,900 492 Climbing FlightAware ADS-B
Wed 01:07:45 PM 35.1734 -85.9417 140° Southeast 477 549 34,900  Level FlightAware ADS-B
Wed 01:08:16 PM 35.1218 -85.8896 140° Southeast 477 549 34,900  Level FlightAware ADS-B
Wed 01:08:46 PM 35.0690 -85.8365 141° Southeast 480 552 34,900  Level FlightAware ADS-B
Wed 01:09:17 PM 35.0164 -85.7837 141° Southeast 482 555 34,900  Level FlightAware ADS-B
Wed 01:09:48 PM 34.9627 -85.7298 141° Southeast 482 555 34,900  Level FlightAware ADS-B
Wed 01:10:27 PM 34.8956 -85.6626 141° Southeast 483 556 34,900  Level FlightAware ADS-B
Wed 01:10:59 PM 34.8401 -85.6072 141° Southeast 483 556 34,900  Level FlightAware ADS-B
Wed 01:11:37 PM 34.7746 -85.5420 141° Southeast 482 555 34,900  Level FlightAware ADS-B
Wed 01:12:10 PM 34.7186 -85.4863 141° Southeast 481 554 34,900  Level FlightAware ADS-B
Wed 01:12:40 PM 34.6668 -85.4346 141° Southeast 481 554 34,900  Level FlightAware ADS-B
Wed 01:13:16 PM 34.6033 -85.3718 141° Southeast 481 554 34,900  Level FlightAware ADS-B
Wed 01:14:12 PM 34.5068 -85.2762 141° Southeast 481 554 34,900  Level FlightAware ADS-B
Wed 01:14:45 PM 34.4499 -85.2199 141° Southeast 480 552 34,900  Level FlightAware ADS-B
Wed 01:15:19 PM 34.3927 -85.1637 141° Southeast 481 554 34,900  Level FlightAware ADS-B
Wed 01:15:49 PM 34.3408 -85.1126 141° Southeast 482 555 34,900  Level FlightAware ADS-B
Wed 01:16:19 PM 34.2883 -85.0607 141° Southeast 483 556 34,900  Level FlightAware ADS-B
Wed 01:16:50 PM 34.2345 -85.0080 141° Southeast 485 558 34,900  Level FlightAware ADS-B
Wed 01:17:20 PM 34.1817 -84.9564 141° Southeast 486 559 34,900  Level FlightAware ADS-B
Wed 01:17:50 PM 34.1290 -84.9049 141° Southeast 487 560 34,900  Level FlightAware ADS-B
Wed 01:18:21 PM 34.0751 -84.8523 141° Southeast 489 563 34,900  Level FlightAware ADS-B
Wed 01:18:52 PM 34.0204 -84.7990 141° Southeast 490 564 34,900  Level FlightAware ADS-B
Wed 01:19:28 PM 33.9573 -84.7375 141° Southeast 492 566 34,900  Level FlightAware ADS-B
Wed 01:20:08 PM 33.8864 -84.6686 141° Southeast 492 566 34,900  Level FlightAware ADS-B
Wed 01:20:46 PM 33.8186 -84.6031 141° Southeast 492 566 34,900  Level FlightAware ADS-B
Wed 01:21:17 PM 33.7623 -84.5487 141° Southeast 494 568 34,900  Level FlightAware ADS-B
Wed 01:21:53 PM 33.6990 -84.4876 141° Southeast 492 566 34,900  Level FlightAware ADS-B
Wed 01:22:26 PM 33.6395 -84.4340 143° Southeast 491 565 34,900  Level FlightAware ADS-B
Wed 01:23:02 PM 33.5770 -84.3970 154° Southeast 486 559 34,900  Level FlightAware ADS-B
Wed 01:23:23 PM 33.5214 -84.3720 159° South 486 559 34,900  Level FlightAware ADS-B
Wed 01:23:58 PM 33.4471 -84.3411 161° South 486 559 34,900  Level FlightAware ADS-B
Wed 01:25:12 PM 33.3030 -84.2810 161° South 477 549 34,900  Level FlightAware ADS-B
Wed 01:26:07 PM 33.1830 -84.2310 161° South 475 547 34,900  Level FlightAware ADS-B
Wed 01:26:42 PM 33.1140 -84.2020 161° South 474 545 34,900  Level FlightAware ADS-B
Wed 01:27:17 PM 33.0390 -84.1710 161° South 480 552 34,900  Level FlightAware ADS-B
Wed 01:28:22 PM 32.8990 -84.1130 161° South 478 550 34,900  Level FlightAware ADS-B
Wed 01:29:17 PM 32.7860 -84.0650 160° South 478 550 34,900  Level FlightAware ADS-B
Wed 01:29:57 PM 32.7160 -84.0340 160° South 478 550 34,900  Level FlightAware ADS-B
Wed 01:31:10 PM 32.5606 -83.9919 160° South 482 555 34,900  Level Atlanta Center
Wed 01:32:10 PM 32.4353 -83.9428 162° South 482 555 34,900  Level Atlanta Center
Wed 01:33:09 PM 32.3081 -83.8914 161° South 482 555 34,900  Level Atlanta Center
Wed 01:34:10 PM 32.1828 -83.8400 161° South 482 555 34,900  Level Atlanta Center
Wed 01:36:26 PM 31.8903 -83.7097 159° South 461 531 34,900  Level Jacksonville Center
Wed 01:37:26 PM 31.7675 -83.6475 157° South 461 531 34,900  Level Jacksonville Center
Wed 01:38:26 PM 31.6636 -83.5736 149° Southeast 477 549 34,900  Level Jacksonville Center
Wed 01:39:26 PM 31.5492 -83.4972 150° Southeast 483 556 34,900  Level Jacksonville Center
Wed 01:40:26 PM 31.4325 -83.4208 151° Southeast 476 548 34,900  Level Jacksonville Center
Wed 01:41:26 PM 31.3158 -83.3450 151° Southeast 481 554 34,900  Level Jacksonville Center
Wed 01:42:26 PM 31.2014 -83.2667 150° Southeast 481 554 34,900 -400 Level Jacksonville Center
Wed 01:43:26 PM 31.0867 -83.1886 150° Southeast 481 554 34,100 -1,900 Descending Jacksonville Center
Wed 01:44:26 PM 30.9719 -83.1106 150° Southeast 481 554 31,100 -2,750 Descending Jacksonville Center
Wed 01:45:26 PM 30.8572 -83.0353 151° Southeast 481 554 28,600 -2,100 Descending Jacksonville Center
Wed 01:46:26 PM 30.7364 -82.9531 150° Southeast 470 541 26,900 -850 Descending Jacksonville Center
Wed 01:47:26 PM 30.6339 -82.8878 151° Southeast 465 535 26,900  Level Jacksonville Center
Wed 01:48:26 PM 30.5150 -82.8058 149° Southeast 460 529 26,900 -500 Level Jacksonville Center
Wed 01:49:26 PM 30.4064 -82.7336 150° Southeast 455 524 25,900 -1,000 Descending Jacksonville Center
Wed 01:50:26 PM 30.2956 -82.6617 151° Southeast 455 524 24,900 -500 Descending Jacksonville Center
Wed 01:51:26 PM 30.1953 -82.5994 152° Southeast 455 524 24,900  Level Jacksonville Center
Wed 01:52:26 PM 30.0886 -82.5278 150° Southeast 455 524 24,900  Level Jacksonville Center
Wed 01:53:26 PM 29.9778 -82.4586 152° Southeast 455 524 24,900 -629 Level Jacksonville Center
Wed 01:58:57 PM 29.3570 -82.1460 152° Southeast 424 488 20,800 -989 Descending FlightAware ADS-B
Wed 01:59:42 PM 29.2800 -82.1090 157° South 410 472 18,700 -2,965 Descending FlightAware ADS-B
Wed 02:00:22 PM 29.2070 -82.0750 158° South 395 455 16,600 -2,147 Descending FlightAware ADS-B
Wed 02:01:17 PM 29.1210 -82.0340 157° South 383 441 15,300 -2,463 Descending FlightAware ADS-B
Wed 02:01:57 PM 29.0560 -82.0050 159° South 370 426 12,700 -2,064 Descending FlightAware ADS-B
Wed 02:02:42 PM 28.9860 -81.9710 157° South 11,400 -1,200 Descending FlightAware ADS-B
Wed 02:03:22 PM 28.9210 -81.9410 158° South 322 371 11,000 -514 Descending FlightAware ADS-B
Wed 02:03:52 PM 28.8850 -81.9150 148° Southeast 306 352 10,800 -267 Descending FlightAware ADS-B
Wed 02:04:07 PM 28.8780 -81.9000 118° Southeast 311 358 10,800  Level FlightAware ADS-B
Wed 02:04:47 PM 28.8560 -81.8320 110° East 314 361 10,800 -400 Level FlightAware ADS-B
Wed 02:05:22 PM 28.8410 -81.7850 110° East 306 352 10,300 -1,200 Descending FlightAware ADS-B
Wed 02:05:52 PM 28.8260 -81.7340 109° East 303 349 9,500 -1,385 Descending FlightAware ADS-B
Wed 02:06:27 PM 28.8110 -81.6840 109° East 303 349 8,800 -560 Descending FlightAware ADS-B
Wed 02:07:07 PM 28.7940 -81.6250 108° East 288 331 8,800 -171 Level FlightAware ADS-B
Wed 02:07:37 PM 28.7820 -81.5830 108° East 282 325 8,600 -764 Descending FlightAware ADS-B
Wed 02:08:02 PM 28.7720 -81.5490 109° East 281 323 8,100 -1,200 Descending FlightAware ADS-B
Wed 02:08:47 PM 28.7500 -81.4850 111° Southeast 270 311 7,200 -1,371 Descending FlightAware ADS-B
Wed 02:09:12 PM 28.7340 -81.4570 123° Southeast 267 307 6,500 -1,650 Descending FlightAware ADS-B
Wed 02:09:27 PM 28.7240 -81.4390 122° Southeast 268 308 6,100 -1,350 Descending FlightAware ADS-B
Wed 02:09:52 PM 28.7080 -81.4120 124° Southeast 265 305 5,600 -1,500 Descending FlightAware ADS-B
Wed 02:10:07 PM 28.6960 -81.3920 124° Southeast 259 298 5,100 -1,733 Descending FlightAware ADS-B
Wed 02:10:37 PM 28.6760 -81.3580 124° Southeast 257 296 4,300 -1,200 Descending FlightAware ADS-B
Wed 02:11:07 PM 28.6530 -81.3290 132° Southeast 236 272 3,900 -900 Descending FlightAware ADS-B
Wed 02:11:37 PM 28.6280 -81.3070 142° Southeast 210 242 3,400 -1,050 Descending FlightAware ADS-B
Wed 02:11:47 PM 28.6200 -81.3010 147° Southeast 203 234 3,200 -1,200 Descending FlightAware ADS-B
Wed 02:12:17 PM 28.5980 -81.2830 144° Southeast 200 230 2,600 -1,200 Descending FlightAware ADS-B
Wed 02:12:27 PM 28.5880 -81.2810 170° South 194 223 2,400 -514 Descending FlightAware ADS-B
Wed 02:12:52 PM 28.5680 -81.2800 177° South 199 229 2,300 -800 Descending FlightAware ADS-B
Wed 02:13:27 PM 28.5320 -81.2800 180° South 193 222 1,600 -1,108 Descending FlightAware ADS-B
Wed 02:13:57 PM 28.5030 -81.2790 178° South 180 207 1,100 -982 Descending FlightAware ADS-B
Wed 02:14:22 PM 28.4840 -81.2790 180° South 144 166 700 -900 Descending FlightAware ADS-B
Wed 02:14:37 PM 28.4740 -81.2790 180° South 145 167 500 -667 Descending FlightAware ADS-B
Wed 02:15:07 PM 28.4540 -81.2790 180° South 146 168 200 -600 Descending FlightAware ADS-B
Wed 02:15:17 PM 28.4470 -81.2790 180° South 146 168 -1,200 Descending FlightAware ADS-B

Login

Don't have an account? Register now (free) for customized features, flight alerts, and more!